sensor_id;sensor_type;location;lat;lon;timestamp;P1;durP1;ratioP1;P2;durP2;ratioP2
66886;SDS011;53798;51.680;5.976;2022-10-16T00:01:42;5.85;;;3.25;;
66886;SDS011;53798;51.680;5.976;2022-10-16T00:04:11;6.25;;;3.67;;
66886;SDS011;53798;51.680;5.976;2022-10-16T00:06:39;7.15;;;3.22;;
66886;SDS011;53798;51.680;5.976;2022-10-16T00:09:06;5.82;;;3.38;;
66886;SDS011;53798;51.680;5.976;2022-10-16T00:11:34;7.22;;;3.45;;
66886;SDS011;53798;51.680;5.976;2022-10-16T00:14:05;12.15;;;3.67;;
66886;SDS011;53798;51.680;5.976;2022-10-16T00:16:36;7.53;;;3.47;;
66886;SDS011;53798;51.680;5.976;2022-10-16T00:19:03;8.02;;;3.30;;
66886;SDS011;53798;51.680;5.976;2022-10-16T00:21:30;5.57;;;3.53;;
66886;SDS011;53798;51.680;5.976;2022-10-16T00:23:59;7.78;;;3.45;;
66886;SDS011;53798;51.680;5.976;2022-10-16T00:26:30;9.43;;;3.28;;
66886;SDS011;53798;51.680;5.976;2022-10-16T00:29:00;5.18;;;3.28;;
66886;SDS011;53798;51.680;5.976;2022-10-16T00:31:27;7.18;;;3.30;;
66886;SDS011;53798;51.680;5.976;2022-10-16T00:33:55;7.85;;;3.65;;
66886;SDS011;53798;51.680;5.976;2022-10-16T00:36:24;6.97;;;3.60;;
66886;SDS011;53798;51.680;5.976;2022-10-16T00:38:53;6.53;;;3.47;;
66886;SDS011;53798;51.680;5.976;2022-10-16T00:41:22;5.13;;;3.30;;
66886;SDS011;53798;51.680;5.976;2022-10-16T00:43:55;5.43;;;3.40;;
66886;SDS011;53798;51.680;5.976;2022-10-16T00:46:38;6.30;;;3.40;;
66886;SDS011;53798;51.680;5.976;2022-10-16T00:49:09;8.02;;;3.50;;
66886;SDS011;53798;51.680;5.976;2022-10-16T00:51:43;6.38;;;3.05;;
66886;SDS011;53798;51.680;5.976;2022-10-16T00:54:15;6.93;;;2.90;;
66886;SDS011;53798;51.680;5.976;2022-10-16T00:56:48;5.88;;;3.10;;
66886;SDS011;53798;51.680;5.976;2022-10-16T00:59:20;5.47;;;3.30;;
66886;SDS011;53798;51.680;5.976;2022-10-16T01:01:53;5.13;;;2.85;;
66886;SDS011;53798;51.680;5.976;2022-10-16T01:04:22;5.03;;;3.40;;
66886;SDS011;53798;51.680;5.976;2022-10-16T01:07:02;4.75;;;2.83;;
66886;SDS011;53798;51.680;5.976;2022-10-16T01:15:47;9.00;;;3.63;;
66886;SDS011;53798;51.680;5.976;2022-10-16T01:21:12;7.28;;;2.88;;
66886;SDS011;53798;51.680;5.976;2022-10-16T01:24:11;5.20;;;3.00;;
66886;SDS011;53798;51.680;5.976;2022-10-16T01:35:25;4.22;;;2.50;;
66886;SDS011;53798;51.680;5.976;2022-10-16T01:38:03;7.22;;;2.72;;
66886;SDS011;53798;51.680;5.976;2022-10-16T01:40:38;7.15;;;2.90;;
66886;SDS011;53798;51.680;5.976;2022-10-16T01:43:12;8.70;;;2.90;;
66886;SDS011;53798;51.680;5.976;2022-10-16T01:45:46;4.88;;;2.58;;
66886;SDS011;53798;51.680;5.976;2022-10-16T01:48:17;7.90;;;3.05;;
66886;SDS011;53798;51.680;5.976;2022-10-16T01:50:58;4.13;;;2.63;;
66886;SDS011;53798;51.680;5.976;2022-10-16T01:53:33;7.28;;;2.90;;
66886;SDS011;53798;51.680;5.976;2022-10-16T01:56:00;5.35;;;2.78;;
66886;SDS011;53798;51.680;5.976;2022-10-16T01:58:37;7.22;;;2.72;;
66886;SDS011;53798;51.680;5.976;2022-10-16T02:01:16;5.00;;;2.85;;
66886;SDS011;53798;51.680;5.976;2022-10-16T02:03:52;4.10;;;2.55;;
66886;SDS011;53798;51.680;5.976;2022-10-16T02:06:25;4.88;;;2.50;;
66886;SDS011;53798;51.680;5.976;2022-10-16T02:08:53;5.30;;;2.50;;
66886;SDS011;53798;51.680;5.976;2022-10-16T02:11:20;4.18;;;2.60;;
66886;SDS011;53798;51.680;5.976;2022-10-16T02:13:55;4.55;;;2.15;;
66886;SDS011;53798;51.680;5.976;2022-10-16T02:16:48;3.30;;;2.17;;
66886;SDS011;53798;51.680;5.976;2022-10-16T02:19:15;4.40;;;2.90;;
66886;SDS011;53798;51.680;5.976;2022-10-16T02:21:49;2.75;;;2.15;;
66886;SDS011;53798;51.680;5.976;2022-10-16T02:27:34;3.53;;;2.10;;
66886;SDS011;53798;51.680;5.976;2022-10-16T02:33:05;4.03;;;2.20;;
66886;SDS011;53798;51.680;5.976;2022-10-16T02:35:37;3.10;;;2.08;;
66886;SDS011;53798;51.680;5.976;2022-10-16T02:38:05;4.57;;;2.10;;
66886;SDS011;53798;51.680;5.976;2022-10-16T02:40:40;7.95;;;2.10;;
66886;SDS011;53798;51.680;5.976;2022-10-16T02:43:08;4.50;;;2.20;;
66886;SDS011;53798;51.680;5.976;2022-10-16T02:45:37;4.72;;;2.20;;
66886;SDS011;53798;51.680;5.976;2022-10-16T02:48:04;5.55;;;2.40;;
66886;SDS011;53798;51.680;5.976;2022-10-16T02:50:32;5.53;;;3.08;;
66886;SDS011;53798;51.680;5.976;2022-10-16T02:53:01;3.08;;;1.90;;
66886;SDS011;53798;51.680;5.976;2022-10-16T02:55:28;3.83;;;1.98;;
66886;SDS011;53798;51.680;5.976;2022-10-16T02:57:55;2.70;;;1.90;;
66886;SDS011;53798;51.680;5.976;2022-10-16T03:00:23;2.97;;;2.10;;
66886;SDS011;53798;51.680;5.976;2022-10-16T03:02:50;5.78;;;2.00;;
66886;SDS011;53798;51.680;5.976;2022-10-16T03:05:18;3.40;;;2.03;;
66886;SDS011;53798;51.680;5.976;2022-10-16T03:07:45;5.10;;;1.88;;
66886;SDS011;53798;51.680;5.976;2022-10-16T03:10:12;3.65;;;2.05;;
66886;SDS011;53798;51.680;5.976;2022-10-16T03:12:40;2.45;;;1.90;;
66886;SDS011;53798;51.680;5.976;2022-10-16T03:15:07;2.70;;;1.95;;
66886;SDS011;53798;51.680;5.976;2022-10-16T03:17:35;2.45;;;1.63;;
66886;SDS011;53798;51.680;5.976;2022-10-16T03:20:02;3.55;;;2.10;;
66886;SDS011;53798;51.680;5.976;2022-10-16T03:22:30;2.08;;;1.75;;
66886;SDS011;53798;51.680;5.976;2022-10-16T03:24:58;4.13;;;1.95;;
66886;SDS011;53798;51.680;5.976;2022-10-16T03:27:25;3.25;;;2.00;;
66886;SDS011;53798;51.680;5.976;2022-10-16T03:29:53;3.15;;;2.00;;
66886;SDS011;53798;51.680;5.976;2022-10-16T03:32:20;4.30;;;2.08;;
66886;SDS011;53798;51.680;5.976;2022-10-16T03:34:48;2.53;;;1.83;;
66886;SDS011;53798;51.680;5.976;2022-10-16T03:37:15;4.78;;;1.77;;
66886;SDS011;53798;51.680;5.976;2022-10-16T03:39:42;3.63;;;2.10;;
66886;SDS011;53798;51.680;5.976;2022-10-16T03:42:09;3.03;;;2.10;;
66886;SDS011;53798;51.680;5.976;2022-10-16T03:44:36;3.90;;;1.90;;
66886;SDS011;53798;51.680;5.976;2022-10-16T03:47:03;2.42;;;1.60;;
66886;SDS011;53798;51.680;5.976;2022-10-16T03:49:30;3.17;;;1.85;;
66886;SDS011;53798;51.680;5.976;2022-10-16T03:51:57;4.55;;;1.80;;
66886;SDS011;53798;51.680;5.976;2022-10-16T03:54:25;3.60;;;1.88;;
66886;SDS011;53798;51.680;5.976;2022-10-16T03:56:52;3.42;;;1.75;;
66886;SDS011;53798;51.680;5.976;2022-10-16T03:59:19;2.78;;;1.90;;
66886;SDS011;53798;51.680;5.976;2022-10-16T04:01:46;2.08;;;1.77;;
66886;SDS011;53798;51.680;5.976;2022-10-16T04:04:13;2.85;;;1.80;;
66886;SDS011;53798;51.680;5.976;2022-10-16T04:06:40;3.50;;;2.00;;
66886;SDS011;53798;51.680;5.976;2022-10-16T04:09:07;5.50;;;2.35;;
66886;SDS011;53798;51.680;5.976;2022-10-16T04:11:35;3.28;;;1.83;;
66886;SDS011;53798;51.680;5.976;2022-10-16T04:14:02;2.42;;;1.60;;
66886;SDS011;53798;51.680;5.976;2022-10-16T04:16:29;3.17;;;1.70;;
66886;SDS011;53798;51.680;5.976;2022-10-16T04:18:56;3.40;;;1.83;;
66886;SDS011;53798;51.680;5.976;2022-10-16T04:21:23;4.13;;;1.98;;
66886;SDS011;53798;51.680;5.976;2022-10-16T04:23:51;3.55;;;1.70;;
66886;SDS011;53798;51.680;5.976;2022-10-16T04:26:18;4.90;;;2.08;;
66886;SDS011;53798;51.680;5.976;2022-10-16T04:28:45;3.40;;;1.83;;
66886;SDS011;53798;51.680;5.976;2022-10-16T04:31:12;5.13;;;1.73;;
66886;SDS011;53798;51.680;5.976;2022-10-16T04:33:41;4.53;;;1.90;;
66886;SDS011;53798;51.680;5.976;2022-10-16T04:36:10;2.30;;;1.63;;
66886;SDS011;53798;51.680;5.976;2022-10-16T04:38:37;4.20;;;1.67;;
66886;SDS011;53798;51.680;5.976;2022-10-16T04:41:06;2.95;;;2.00;;
66886;SDS011;53798;51.680;5.976;2022-10-16T04:43:34;5.82;;;2.00;;
66886;SDS011;53798;51.680;5.976;2022-10-16T04:46:01;1.73;;;1.48;;
66886;SDS011;53798;51.680;5.976;2022-10-16T04:48:31;4.05;;;1.73;;
66886;SDS011;53798;51.680;5.976;2022-10-16T04:50:59;4.50;;;1.95;;
66886;SDS011;53798;51.680;5.976;2022-10-16T04:53:28;3.17;;;1.80;;
66886;SDS011;53798;51.680;5.976;2022-10-16T04:55:55;3.20;;;1.88;;
66886;SDS011;53798;51.680;5.976;2022-10-16T04:58:23;3.80;;;1.80;;
66886;SDS011;53798;51.680;5.976;2022-10-16T05:00:50;4.38;;;1.70;;
66886;SDS011;53798;51.680;5.976;2022-10-16T05:03:17;4.07;;;1.50;;
66886;SDS011;53798;51.680;5.976;2022-10-16T05:05:45;3.22;;;1.70;;
66886;SDS011;53798;51.680;5.976;2022-10-16T05:08:13;3.35;;;1.73;;
66886;SDS011;53798;51.680;5.976;2022-10-16T05:10:42;4.20;;;1.55;;
66886;SDS011;53798;51.680;5.976;2022-10-16T05:13:11;3.33;;;1.77;;
66886;SDS011;53798;51.680;5.976;2022-10-16T05:15:38;4.20;;;1.80;;
66886;SDS011;53798;51.680;5.976;2022-10-16T05:18:05;3.25;;;1.88;;
66886;SDS011;53798;51.680;5.976;2022-10-16T05:20:32;3.35;;;1.70;;
66886;SDS011;53798;51.680;5.976;2022-10-16T05:23:00;4.57;;;1.75;;
66886;SDS011;53798;51.680;5.976;2022-10-16T05:25:27;5.78;;;1.90;;
66886;SDS011;53798;51.680;5.976;2022-10-16T05:27:54;3.15;;;1.98;;
66886;SDS011;53798;51.680;5.976;2022-10-16T05:30:21;3.55;;;2.00;;
66886;SDS011;53798;51.680;5.976;2022-10-16T05:32:49;4.32;;;1.98;;
66886;SDS011;53798;51.680;5.976;2022-10-16T05:35:18;2.75;;;1.95;;
66886;SDS011;53798;51.680;5.976;2022-10-16T05:37:46;4.05;;;1.85;;
66886;SDS011;53798;51.680;5.976;2022-10-16T05:40:14;7.47;;;1.90;;
66886;SDS011;53798;51.680;5.976;2022-10-16T05:42:43;3.00;;;2.00;;
66886;SDS011;53798;51.680;5.976;2022-10-16T05:45:10;2.60;;;1.80;;
66886;SDS011;53798;51.680;5.976;2022-10-16T05:47:39;4.43;;;1.67;;
66886;SDS011;53798;51.680;5.976;2022-10-16T05:50:06;4.20;;;1.90;;
66886;SDS011;53798;51.680;5.976;2022-10-16T05:52:34;4.38;;;1.80;;
66886;SDS011;53798;51.680;5.976;2022-10-16T05:55:02;3.92;;;1.95;;
66886;SDS011;53798;51.680;5.976;2022-10-16T05:57:30;3.40;;;1.73;;
66886;SDS011;53798;51.680;5.976;2022-10-16T05:59:57;3.00;;;1.85;;
66886;SDS011;53798;51.680;5.976;2022-10-16T06:02:24;3.03;;;1.95;;
66886;SDS011;53798;51.680;5.976;2022-10-16T06:04:52;5.13;;;2.20;;
66886;SDS011;53798;51.680;5.976;2022-10-16T06:07:22;2.75;;;1.63;;
66886;SDS011;53798;51.680;5.976;2022-10-16T06:09:51;2.40;;;1.70;;
66886;SDS011;53798;51.680;5.976;2022-10-16T06:12:20;2.97;;;1.80;;
66886;SDS011;53798;51.680;5.976;2022-10-16T06:14:47;2.65;;;1.83;;
66886;SDS011;53798;51.680;5.976;2022-10-16T06:19:46;4.90;;;1.80;;
66886;SDS011;53798;51.680;5.976;2022-10-16T06:22:15;4.05;;;1.77;;
66886;SDS011;53798;51.680;5.976;2022-10-16T06:24:43;4.68;;;1.95;;
66886;SDS011;53798;51.680;5.976;2022-10-16T06:27:11;5.00;;;2.10;;
66886;SDS011;53798;51.680;5.976;2022-10-16T06:29:38;4.80;;;2.05;;
66886;SDS011;53798;51.680;5.976;2022-10-16T06:32:06;3.28;;;1.80;;
66886;SDS011;53798;51.680;5.976;2022-10-16T06:34:34;5.45;;;1.80;;
66886;SDS011;53798;51.680;5.976;2022-10-16T06:37:02;5.45;;;1.92;;
66886;SDS011;53798;51.680;5.976;2022-10-16T06:39:29;3.92;;;2.00;;
66886;SDS011;53798;51.680;5.976;2022-10-16T06:41:56;4.22;;;1.98;;
66886;SDS011;53798;51.680;5.976;2022-10-16T06:44:28;3.65;;;1.80;;
66886;SDS011;53798;51.680;5.976;2022-10-16T06:46:57;6.60;;;2.28;;
66886;SDS011;53798;51.680;5.976;2022-10-16T06:49:24;2.10;;;1.60;;
66886;SDS011;53798;51.680;5.976;2022-10-16T06:51:52;2.72;;;1.70;;
66886;SDS011;53798;51.680;5.976;2022-10-16T06:54:19;4.78;;;2.10;;
66886;SDS011;53798;51.680;5.976;2022-10-16T06:56:46;2.67;;;1.90;;
66886;SDS011;53798;51.680;5.976;2022-10-16T06:59:13;3.67;;;1.70;;
66886;SDS011;53798;51.680;5.976;2022-10-16T07:01:40;5.38;;;1.92;;
66886;SDS011;53798;51.680;5.976;2022-10-16T07:04:07;3.92;;;1.95;;
66886;SDS011;53798;51.680;5.976;2022-10-16T07:06:35;2.80;;;1.70;;
66886;SDS011;53798;51.680;5.976;2022-10-16T07:09:03;5.40;;;1.70;;
66886;SDS011;53798;51.680;5.976;2022-10-16T07:11:36;2.30;;;1.52;;
66886;SDS011;53798;51.680;5.976;2022-10-16T07:14:12;5.00;;;1.67;;
66886;SDS011;53798;51.680;5.976;2022-10-16T07:16:44;2.38;;;1.67;;
66886;SDS011;53798;51.680;5.976;2022-10-16T07:19:12;2.53;;;1.45;;
66886;SDS011;53798;51.680;5.976;2022-10-16T07:21:42;5.57;;;1.65;;
66886;SDS011;53798;51.680;5.976;2022-10-16T07:24:12;1.98;;;1.52;;
66886;SDS011;53798;51.680;5.976;2022-10-16T07:26:44;3.88;;;1.67;;
66886;SDS011;53798;51.680;5.976;2022-10-16T07:29:13;2.85;;;1.65;;
66886;SDS011;53798;51.680;5.976;2022-10-16T07:31:47;3.40;;;1.52;;
66886;SDS011;53798;51.680;5.976;2022-10-16T07:34:17;6.07;;;1.48;;
66886;SDS011;53798;51.680;5.976;2022-10-16T07:36:49;3.30;;;1.40;;
66886;SDS011;53798;51.680;5.976;2022-10-16T07:39:48;3.42;;;1.67;;
66886;SDS011;53798;51.680;5.976;2022-10-16T07:42:16;5.10;;;1.50;;
66886;SDS011;53798;51.680;5.976;2022-10-16T07:44:49;4.85;;;1.67;;
66886;SDS011;53798;51.680;5.976;2022-10-16T07:47:17;3.80;;;1.67;;
66886;SDS011;53798;51.680;5.976;2022-10-16T07:49:46;2.80;;;1.40;;
66886;SDS011;53798;51.680;5.976;2022-10-16T07:52:15;3.03;;;1.80;;
66886;SDS011;53798;51.680;5.976;2022-10-16T07:54:43;3.55;;;1.70;;
66886;SDS011;53798;51.680;5.976;2022-10-16T07:57:11;7.05;;;1.60;;
66886;SDS011;53798;51.680;5.976;2022-10-16T07:59:47;4.47;;;1.65;;
66886;SDS011;53798;51.680;5.976;2022-10-16T08:02:15;3.10;;;1.50;;
66886;SDS011;53798;51.680;5.976;2022-10-16T08:04:42;3.20;;;1.30;;
66886;SDS011;53798;51.680;5.976;2022-10-16T08:07:11;3.28;;;1.45;;
66886;SDS011;53798;51.680;5.976;2022-10-16T08:09:39;3.72;;;1.33;;
66886;SDS011;53798;51.680;5.976;2022-10-16T08:12:09;3.38;;;1.40;;
66886;SDS011;53798;51.680;5.976;2022-10-16T08:14:38;6.13;;;1.60;;
66886;SDS011;53798;51.680;5.976;2022-10-16T08:17:10;3.08;;;1.10;;
66886;SDS011;53798;51.680;5.976;2022-10-16T08:19:50;2.92;;;1.45;;
66886;SDS011;53798;51.680;5.976;2022-10-16T08:22:19;2.85;;;1.27;;
66886;SDS011;53798;51.680;5.976;2022-10-16T08:24:47;3.63;;;1.17;;
66886;SDS011;53798;51.680;5.976;2022-10-16T08:27:16;5.57;;;1.40;;
66886;SDS011;53798;51.680;5.976;2022-10-16T08:29:43;5.93;;;1.38;;
66886;SDS011;53798;51.680;5.976;2022-10-16T08:32:17;5.00;;;1.35;;
66886;SDS011;53798;51.680;5.976;2022-10-16T08:34:48;4.90;;;1.30;;
66886;SDS011;53798;51.680;5.976;2022-10-16T08:37:16;2.28;;;1.17;;
66886;SDS011;53798;51.680;5.976;2022-10-16T08:39:44;2.17;;;1.33;;
66886;SDS011;53798;51.680;5.976;2022-10-16T08:42:18;3.03;;;1.20;;
66886;SDS011;53798;51.680;5.976;2022-10-16T08:50:53;5.47;;;1.20;;
66886;SDS011;53798;51.680;5.976;2022-10-16T08:53:25;4.47;;;1.40;;
66886;SDS011;53798;51.680;5.976;2022-10-16T08:56:02;2.60;;;1.10;;
66886;SDS011;53798;51.680;5.976;2022-10-16T08:58:30;3.25;;;1.27;;
66886;SDS011;53798;51.680;5.976;2022-10-16T09:01:00;4.75;;;1.60;;
66886;SDS011;53798;51.680;5.976;2022-10-16T09:04:03;3.95;;;1.40;;
66886;SDS011;53798;51.680;5.976;2022-10-16T09:09:42;8.23;;;2.67;;
66886;SDS011;53798;51.680;5.976;2022-10-16T09:12:28;9.88;;;5.63;;
66886;SDS011;53798;51.680;5.976;2022-10-16T09:20:40;10.82;;;7.13;;
66886;SDS011;53798;51.680;5.976;2022-10-16T09:23:29;4.30;;;2.05;;
66886;SDS011;53798;51.680;5.976;2022-10-16T09:26:03;10.30;;;5.60;;
66886;SDS011;53798;51.680;5.976;2022-10-16T09:28:37;3.72;;;1.65;;
66886;SDS011;53798;51.680;5.976;2022-10-16T09:31:04;4.35;;;1.13;;
66886;SDS011;53798;51.680;5.976;2022-10-16T09:33:36;5.70;;;2.72;;
66886;SDS011;53798;51.680;5.976;2022-10-16T09:36:08;5.95;;;3.20;;
66886;SDS011;53798;51.680;5.976;2022-10-16T09:38:38;7.38;;;1.90;;
66886;SDS011;53798;51.680;5.976;2022-10-16T09:41:13;7.03;;;1.20;;
66886;SDS011;53798;51.680;5.976;2022-10-16T09:43:53;6.95;;;1.23;;
66886;SDS011;53798;51.680;5.976;2022-10-16T09:46:29;7.22;;;3.72;;
66886;SDS011;53798;51.680;5.976;2022-10-16T09:49:04;23.20;;;15.65;;
66886;SDS011;53798;51.680;5.976;2022-10-16T09:51:47;20.27;;;12.10;;
66886;SDS011;53798;51.680;5.976;2022-10-16T09:54:16;5.50;;;1.20;;
66886;SDS011;53798;51.680;5.976;2022-10-16T09:56:46;8.38;;;3.80;;
66886;SDS011;53798;51.680;5.976;2022-10-16T09:59:21;7.00;;;2.83;;
66886;SDS011;53798;51.680;5.976;2022-10-16T10:01:53;8.27;;;3.05;;
66886;SDS011;53798;51.680;5.976;2022-10-16T10:04:22;4.03;;;1.25;;
66886;SDS011;53798;51.680;5.976;2022-10-16T10:06:55;7.43;;;1.45;;
66886;SDS011;53798;51.680;5.976;2022-10-16T10:09:26;5.32;;;2.22;;
66886;SDS011;53798;51.680;5.976;2022-10-16T10:12:04;8.18;;;2.58;;
66886;SDS011;53798;51.680;5.976;2022-10-16T10:14:50;7.40;;;3.40;;
66886;SDS011;53798;51.680;5.976;2022-10-16T10:17:21;7.93;;;4.10;;
66886;SDS011;53798;51.680;5.976;2022-10-16T10:22:57;8.50;;;1.38;;
66886;SDS011;53798;51.680;5.976;2022-10-16T10:31:27;5.25;;;1.65;;
66886;SDS011;53798;51.680;5.976;2022-10-16T10:34:39;8.52;;;2.70;;
66886;SDS011;53798;51.680;5.976;2022-10-16T10:37:33;10.27;;;1.98;;
66886;SDS011;53798;51.680;5.976;2022-10-16T10:50:39;10.10;;;1.05;;
66886;SDS011;53798;51.680;5.976;2022-10-16T10:56:42;6.15;;;1.60;;
66886;SDS011;53798;51.680;5.976;2022-10-16T11:05:17;9.32;;;1.95;;
66886;SDS011;53798;51.680;5.976;2022-10-16T11:11:49;8.82;;;2.15;;
66886;SDS011;53798;51.680;5.976;2022-10-16T11:14:35;5.35;;;1.58;;
66886;SDS011;53798;51.680;5.976;2022-10-16T11:17:13;8.98;;;1.60;;
66886;SDS011;53798;51.680;5.976;2022-10-16T11:19:53;6.65;;;1.85;;
66886;SDS011;53798;51.680;5.976;2022-10-16T11:22:36;5.78;;;1.52;;
66886;SDS011;53798;51.680;5.976;2022-10-16T11:25:16;7.95;;;1.50;;
66886;SDS011;53798;51.680;5.976;2022-10-16T11:30:27;5.60;;;1.25;;
66886;SDS011;53798;51.680;5.976;2022-10-16T11:33:04;7.72;;;1.08;;
66886;SDS011;53798;51.680;5.976;2022-10-16T11:35:53;12.45;;;1.70;;
66886;SDS011;53798;51.680;5.976;2022-10-16T11:38:29;8.77;;;1.40;;
66886;SDS011;53798;51.680;5.976;2022-10-16T11:41:26;8.43;;;1.77;;
66886;SDS011;53798;51.680;5.976;2022-10-16T11:47:24;4.53;;;1.52;;
66886;SDS011;53798;51.680;5.976;2022-10-16T11:55:48;7.03;;;1.42;;
66886;SDS011;53798;51.680;5.976;2022-10-16T11:58:20;14.05;;;1.60;;
66886;SDS011;53798;51.680;5.976;2022-10-16T12:09:11;7.80;;;1.27;;
66886;SDS011;53798;51.680;5.976;2022-10-16T12:11:49;7.40;;;1.10;;
66886;SDS011;53798;51.680;5.976;2022-10-16T12:22:50;4.13;;;1.15;;
66886;SDS011;53798;51.680;5.976;2022-10-16T12:25:34;3.33;;;1.00;;
66886;SDS011;53798;51.680;5.976;2022-10-16T12:30:43;9.10;;;1.85;;
66886;SDS011;53798;51.680;5.976;2022-10-16T12:33:28;7.50;;;1.10;;
66886;SDS011;53798;51.680;5.976;2022-10-16T12:36:00;7.85;;;1.20;;
66886;SDS011;53798;51.680;5.976;2022-10-16T12:38:44;6.88;;;1.38;;
66886;SDS011;53798;51.680;5.976;2022-10-16T12:41:25;12.57;;;3.65;;
66886;SDS011;53798;51.680;5.976;2022-10-16T12:43:58;10.38;;;2.83;;
66886;SDS011;53798;51.680;5.976;2022-10-16T12:49:06;6.93;;;1.30;;
66886;SDS011;53798;51.680;5.976;2022-10-16T12:51:43;8.32;;;1.48;;
66886;SDS011;53798;51.680;5.976;2022-10-16T12:54:18;8.15;;;1.30;;
66886;SDS011;53798;51.680;5.976;2022-10-16T12:59:55;6.53;;;1.23;;
66886;SDS011;53798;51.680;5.976;2022-10-16T13:03:08;6.25;;;1.55;;
66886;SDS011;53798;51.680;5.976;2022-10-16T13:12:01;8.32;;;1.40;;
66886;SDS011;53798;51.680;5.976;2022-10-16T13:14:49;7.30;;;1.00;;
66886;SDS011;53798;51.680;5.976;2022-10-16T13:22:51;8.73;;;1.55;;
66886;SDS011;53798;51.680;5.976;2022-10-16T13:28:40;14.63;;;1.40;;
66886;SDS011;53798;51.680;5.976;2022-10-16T13:31:15;6.32;;;1.10;;
66886;SDS011;53798;51.680;5.976;2022-10-16T13:33:58;5.88;;;1.30;;
66886;SDS011;53798;51.680;5.976;2022-10-16T13:36:28;7.53;;;1.23;;
66886;SDS011;53798;51.680;5.976;2022-10-16T13:41:43;4.15;;;1.15;;
66886;SDS011;53798;51.680;5.976;2022-10-16T13:44:15;6.22;;;1.25;;
66886;SDS011;53798;51.680;5.976;2022-10-16T13:46:47;4.22;;;0.95;;
66886;SDS011;53798;51.680;5.976;2022-10-16T13:49:27;5.68;;;1.13;;
66886;SDS011;53798;51.680;5.976;2022-10-16T13:51:58;9.82;;;0.90;;
66886;SDS011;53798;51.680;5.976;2022-10-16T13:54:27;6.97;;;0.80;;
66886;SDS011;53798;51.680;5.976;2022-10-16T13:57:04;6.32;;;1.45;;
66886;SDS011;53798;51.680;5.976;2022-10-16T13:59:52;4.38;;;1.00;;
66886;SDS011;53798;51.680;5.976;2022-10-16T14:02:22;4.95;;;1.02;;
66886;SDS011;53798;51.680;5.976;2022-10-16T14:04:56;5.53;;;0.95;;
66886;SDS011;53798;51.680;5.976;2022-10-16T14:07:27;8.07;;;1.10;;
66886;SDS011;53798;51.680;5.976;2022-10-16T14:10:05;6.55;;;1.10;;
66886;SDS011;53798;51.680;5.976;2022-10-16T14:12:54;5.45;;;0.85;;
66886;SDS011;53798;51.680;5.976;2022-10-16T14:15:24;5.18;;;1.00;;
66886;SDS011;53798;51.680;5.976;2022-10-16T14:17:51;6.82;;;0.95;;
66886;SDS011;53798;51.680;5.976;2022-10-16T14:20:23;5.55;;;1.10;;
66886;SDS011;53798;51.680;5.976;2022-10-16T14:25:45;4.05;;;1.13;;
66886;SDS011;53798;51.680;5.976;2022-10-16T14:30:49;4.25;;;1.30;;
66886;SDS011;53798;51.680;5.976;2022-10-16T14:36:05;3.30;;;0.95;;
66886;SDS011;53798;51.680;5.976;2022-10-16T14:38:43;5.68;;;1.00;;
66886;SDS011;53798;51.680;5.976;2022-10-16T14:41:40;4.15;;;0.85;;
66886;SDS011;53798;51.680;5.976;2022-10-16T14:44:11;6.88;;;1.17;;
66886;SDS011;53798;51.680;5.976;2022-10-16T14:46:41;8.02;;;1.00;;
66886;SDS011;53798;51.680;5.976;2022-10-16T14:51:38;4.03;;;1.10;;
66886;SDS011;53798;51.680;5.976;2022-10-16T14:54:09;5.22;;;0.88;;
66886;SDS011;53798;51.680;5.976;2022-10-16T14:56:43;3.97;;;0.80;;
66886;SDS011;53798;51.680;5.976;2022-10-16T14:59:22;5.30;;;1.10;;
66886;SDS011;53798;51.680;5.976;2022-10-16T15:01:56;5.20;;;1.25;;
66886;SDS011;53798;51.680;5.976;2022-10-16T15:04:23;6.82;;;1.60;;
66886;SDS011;53798;51.680;5.976;2022-10-16T15:06:50;5.35;;;1.55;;
66886;SDS011;53798;51.680;5.976;2022-10-16T15:09:17;8.20;;;1.50;;
66886;SDS011;53798;51.680;5.976;2022-10-16T15:11:44;7.13;;;1.38;;
66886;SDS011;53798;51.680;5.976;2022-10-16T15:14:13;3.78;;;0.88;;
66886;SDS011;53798;51.680;5.976;2022-10-16T15:16:48;5.68;;;1.00;;
66886;SDS011;53798;51.680;5.976;2022-10-16T15:19:15;4.30;;;1.25;;
66886;SDS011;53798;51.680;5.976;2022-10-16T15:21:42;7.18;;;1.38;;
66886;SDS011;53798;51.680;5.976;2022-10-16T15:24:13;3.20;;;1.23;;
66886;SDS011;53798;51.680;5.976;2022-10-16T15:26:46;4.35;;;1.17;;
66886;SDS011;53798;51.680;5.976;2022-10-16T15:29:13;5.15;;;1.38;;
66886;SDS011;53798;51.680;5.976;2022-10-16T15:31:41;3.72;;;0.90;;
66886;SDS011;53798;51.680;5.976;2022-10-16T15:34:12;6.95;;;1.20;;
66886;SDS011;53798;51.680;5.976;2022-10-16T15:36:40;5.68;;;1.38;;
66886;SDS011;53798;51.680;5.976;2022-10-16T15:41:45;4.55;;;0.98;;
66886;SDS011;53798;51.680;5.976;2022-10-16T15:44:20;3.00;;;1.00;;
66886;SDS011;53798;51.680;5.976;2022-10-16T15:46:54;8.98;;;1.40;;
66886;SDS011;53798;51.680;5.976;2022-10-16T15:49:21;5.05;;;0.82;;
66886;SDS011;53798;51.680;5.976;2022-10-16T15:51:49;4.38;;;1.65;;
66886;SDS011;53798;51.680;5.976;2022-10-16T15:54:16;10.32;;;2.20;;
66886;SDS011;53798;51.680;5.976;2022-10-16T15:56:43;10.55;;;4.57;;
66886;SDS011;53798;51.680;5.976;2022-10-16T15:59:12;7.82;;;2.70;;
66886;SDS011;53798;51.680;5.976;2022-10-16T16:01:39;7.35;;;2.42;;
66886;SDS011;53798;51.680;5.976;2022-10-16T16:04:06;3.38;;;1.45;;
66886;SDS011;53798;51.680;5.976;2022-10-16T16:06:51;3.60;;;1.17;;
66886;SDS011;53798;51.680;5.976;2022-10-16T16:09:18;5.00;;;1.20;;
66886;SDS011;53798;51.680;5.976;2022-10-16T16:11:45;2.45;;;1.00;;
66886;SDS011;53798;51.680;5.976;2022-10-16T16:17:04;4.32;;;1.00;;
66886;SDS011;53798;51.680;5.976;2022-10-16T16:19:31;4.43;;;1.10;;
66886;SDS011;53798;51.680;5.976;2022-10-16T16:21:59;7.07;;;1.25;;
66886;SDS011;53798;51.680;5.976;2022-10-16T16:24:26;4.68;;;1.30;;
66886;SDS011;53798;51.680;5.976;2022-10-16T16:26:53;2.67;;;1.00;;
66886;SDS011;53798;51.680;5.976;2022-10-16T16:29:21;9.00;;;1.30;;
66886;SDS011;53798;51.680;5.976;2022-10-16T16:31:48;8.30;;;1.23;;
66886;SDS011;53798;51.680;5.976;2022-10-16T16:34:18;2.95;;;1.08;;
66886;SDS011;53798;51.680;5.976;2022-10-16T16:36:45;4.30;;;1.05;;
66886;SDS011;53798;51.680;5.976;2022-10-16T16:39:12;8.02;;;1.40;;
66886;SDS011;53798;51.680;5.976;2022-10-16T16:41:40;4.18;;;1.20;;
66886;SDS011;53798;51.680;5.976;2022-10-16T16:44:08;5.40;;;1.25;;
66886;SDS011;53798;51.680;5.976;2022-10-16T16:46:37;10.80;;;1.40;;
66886;SDS011;53798;51.680;5.976;2022-10-16T16:49:06;5.72;;;1.40;;
66886;SDS011;53798;51.680;5.976;2022-10-16T16:51:33;14.27;;;1.10;;
66886;SDS011;53798;51.680;5.976;2022-10-16T16:54:06;3.72;;;1.10;;
66886;SDS011;53798;51.680;5.976;2022-10-16T16:56:38;6.43;;;1.10;;
66886;SDS011;53798;51.680;5.976;2022-10-16T16:59:13;4.72;;;1.40;;
66886;SDS011;53798;51.680;5.976;2022-10-16T17:01:44;5.72;;;0.80;;
66886;SDS011;53798;51.680;5.976;2022-10-16T17:04:11;4.13;;;1.05;;
66886;SDS011;53798;51.680;5.976;2022-10-16T17:06:41;9.07;;;1.23;;
66886;SDS011;53798;51.680;5.976;2022-10-16T17:09:08;4.22;;;1.02;;
66886;SDS011;53798;51.680;5.976;2022-10-16T17:11:39;7.68;;;1.33;;
66886;SDS011;53798;51.680;5.976;2022-10-16T17:14:09;6.18;;;1.55;;
66886;SDS011;53798;51.680;5.976;2022-10-16T17:16:37;3.92;;;1.30;;
66886;SDS011;53798;51.680;5.976;2022-10-16T17:19:07;3.28;;;1.40;;
66886;SDS011;53798;51.680;5.976;2022-10-16T17:21:38;5.88;;;1.73;;
66886;SDS011;53798;51.680;5.976;2022-10-16T17:24:08;7.15;;;1.58;;
66886;SDS011;53798;51.680;5.976;2022-10-16T17:26:36;7.85;;;1.63;;
66886;SDS011;53798;51.680;5.976;2022-10-16T17:29:05;4.63;;;1.50;;
66886;SDS011;53798;51.680;5.976;2022-10-16T17:31:33;5.75;;;1.50;;
66886;SDS011;53798;51.680;5.976;2022-10-16T17:34:03;5.72;;;1.40;;
66886;SDS011;53798;51.680;5.976;2022-10-16T17:36:38;4.72;;;1.50;;
66886;SDS011;53798;51.680;5.976;2022-10-16T17:39:10;6.28;;;1.92;;